sensor_id;sensor_type;location;lat;lon;timestamp;P1;durP1;ratioP1;P2;durP2;ratioP2
36315;SDS011;22343;50.820;2.666;2023-03-26T00:00:58;13.63;;;4.93;;
36315;SDS011;22343;50.820;2.666;2023-03-26T00:03:43;13.80;;;3.87;;
36315;SDS011;22343;50.820;2.666;2023-03-26T00:06:31;7.90;;;3.17;;
36315;SDS011;22343;50.820;2.666;2023-03-26T00:09:19;7.87;;;3.53;;
36315;SDS011;22343;50.820;2.666;2023-03-26T00:12:04;9.03;;;3.93;;
36315;SDS011;22343;50.820;2.666;2023-03-26T00:14:48;9.90;;;3.87;;
36315;SDS011;22343;50.820;2.666;2023-03-26T00:17:34;9.10;;;3.30;;
36315;SDS011;22343;50.820;2.666;2023-03-26T00:20:19;8.00;;;2.70;;
36315;SDS011;22343;50.820;2.666;2023-03-26T00:23:03;7.20;;;2.87;;
36315;SDS011;22343;50.820;2.666;2023-03-26T00:25:49;11.63;;;3.53;;
36315;SDS011;22343;50.820;2.666;2023-03-26T00:28:33;8.80;;;2.90;;
36315;SDS011;22343;50.820;2.666;2023-03-26T00:31:17;6.77;;;3.40;;
36315;SDS011;22343;50.820;2.666;2023-03-26T00:34:02;11.63;;;3.70;;
36315;SDS011;22343;50.820;2.666;2023-03-26T00:36:48;13.03;;;3.60;;
36315;SDS011;22343;50.820;2.666;2023-03-26T00:39:37;9.87;;;3.70;;
36315;SDS011;22343;50.820;2.666;2023-03-26T00:42:22;9.27;;;3.60;;
36315;SDS011;22343;50.820;2.666;2023-03-26T00:45:06;10.27;;;3.20;;
36315;SDS011;22343;50.820;2.666;2023-03-26T00:47:51;11.57;;;4.03;;
36315;SDS011;22343;50.820;2.666;2023-03-26T00:50:35;14.20;;;3.97;;
36315;SDS011;22343;50.820;2.666;2023-03-26T00:53:21;13.17;;;3.43;;
36315;SDS011;22343;50.820;2.666;2023-03-26T00:56:06;9.20;;;3.40;;
36315;SDS011;22343;50.820;2.666;2023-03-26T00:58:51;16.70;;;3.90;;
36315;SDS011;22343;50.820;2.666;2023-03-26T01:01:35;12.90;;;4.03;;
36315;SDS011;22343;50.820;2.666;2023-03-26T01:04:22;11.37;;;3.93;;
36315;SDS011;22343;50.820;2.666;2023-03-26T01:07:10;11.40;;;4.00;;
36315;SDS011;22343;50.820;2.666;2023-03-26T01:09:57;11.47;;;4.30;;
36315;SDS011;22343;50.820;2.666;2023-03-26T01:12:42;10.50;;;3.87;;
36315;SDS011;22343;50.820;2.666;2023-03-26T01:15:27;13.30;;;3.97;;
36315;SDS011;22343;50.820;2.666;2023-03-26T01:18:13;12.20;;;4.23;;
36315;SDS011;22343;50.820;2.666;2023-03-26T01:20:57;8.87;;;4.27;;
36315;SDS011;22343;50.820;2.666;2023-03-26T01:26:53;14.63;;;4.00;;
36315;SDS011;22343;50.820;2.666;2023-03-26T01:36:38;13.70;;;4.70;;
36315;SDS011;22343;50.820;2.666;2023-03-26T01:39:30;13.57;;;4.40;;
36315;SDS011;22343;50.820;2.666;2023-03-26T01:42:35;11.10;;;4.17;;
36315;SDS011;22343;50.820;2.666;2023-03-26T01:45:25;12.83;;;4.67;;
36315;SDS011;22343;50.820;2.666;2023-03-26T01:48:13;14.40;;;5.00;;
36315;SDS011;22343;50.820;2.666;2023-03-26T01:50:58;14.07;;;4.13;;
36315;SDS011;22343;50.820;2.666;2023-03-26T01:53:43;12.03;;;4.70;;
36315;SDS011;22343;50.820;2.666;2023-03-26T02:06:04;13.53;;;4.43;;
36315;SDS011;22343;50.820;2.666;2023-03-26T02:08:51;12.53;;;4.47;;
36315;SDS011;22343;50.820;2.666;2023-03-26T02:11:39;12.43;;;4.60;;
36315;SDS011;22343;50.820;2.666;2023-03-26T02:14:24;10.27;;;4.40;;
36315;SDS011;22343;50.820;2.666;2023-03-26T02:17:09;14.50;;;5.03;;
36315;SDS011;22343;50.820;2.666;2023-03-26T02:19:53;15.47;;;4.90;;
36315;SDS011;22343;50.820;2.666;2023-03-26T02:22:38;11.23;;;4.13;;
36315;SDS011;22343;50.820;2.666;2023-03-26T02:25:28;14.63;;;4.30;;
36315;SDS011;22343;50.820;2.666;2023-03-26T02:28:13;11.47;;;4.37;;
36315;SDS011;22343;50.820;2.666;2023-03-26T02:30:57;13.20;;;4.77;;
36315;SDS011;22343;50.820;2.666;2023-03-26T02:33:44;12.57;;;4.80;;
36315;SDS011;22343;50.820;2.666;2023-03-26T02:36:30;11.07;;;4.43;;
36315;SDS011;22343;50.820;2.666;2023-03-26T02:39:14;10.13;;;4.20;;
36315;SDS011;22343;50.820;2.666;2023-03-26T02:41:58;16.13;;;4.87;;
36315;SDS011;22343;50.820;2.666;2023-03-26T02:44:43;13.47;;;4.10;;
36315;SDS011;22343;50.820;2.666;2023-03-26T02:47:27;9.83;;;4.00;;
36315;SDS011;22343;50.820;2.666;2023-03-26T02:50:12;12.87;;;4.20;;
36315;SDS011;22343;50.820;2.666;2023-03-26T02:52:56;13.83;;;4.57;;
36315;SDS011;22343;50.820;2.666;2023-03-26T02:55:41;13.17;;;4.40;;
36315;SDS011;22343;50.820;2.666;2023-03-26T02:58:26;13.23;;;4.50;;
36315;SDS011;22343;50.820;2.666;2023-03-26T03:01:12;12.00;;;4.20;;
36315;SDS011;22343;50.820;2.666;2023-03-26T03:04:01;12.30;;;4.80;;
36315;SDS011;22343;50.820;2.666;2023-03-26T03:06:46;10.47;;;4.20;;
36315;SDS011;22343;50.820;2.666;2023-03-26T03:09:35;12.63;;;4.17;;
36315;SDS011;22343;50.820;2.666;2023-03-26T03:12:19;11.00;;;4.07;;
36315;SDS011;22343;50.820;2.666;2023-03-26T03:15:04;8.93;;;4.03;;
36315;SDS011;22343;50.820;2.666;2023-03-26T03:17:49;10.53;;;3.60;;
36315;SDS011;22343;50.820;2.666;2023-03-26T03:20:33;9.23;;;3.47;;
36315;SDS011;22343;50.820;2.666;2023-03-26T03:23:18;11.30;;;3.77;;
36315;SDS011;22343;50.820;2.666;2023-03-26T03:26:03;8.27;;;3.40;;
36315;SDS011;22343;50.820;2.666;2023-03-26T03:28:49;8.43;;;3.57;;
36315;SDS011;22343;50.820;2.666;2023-03-26T03:31:34;12.83;;;3.77;;
36315;SDS011;22343;50.820;2.666;2023-03-26T03:34:18;6.83;;;3.40;;
36315;SDS011;22343;50.820;2.666;2023-03-26T03:37:04;11.83;;;3.90;;
36315;SDS011;22343;50.820;2.666;2023-03-26T03:39:49;13.87;;;4.00;;
36315;SDS011;22343;50.820;2.666;2023-03-26T03:42:33;13.20;;;4.63;;
36315;SDS011;22343;50.820;2.666;2023-03-26T03:45:18;8.30;;;3.33;;
36315;SDS011;22343;50.820;2.666;2023-03-26T03:48:02;11.03;;;4.20;;
36315;SDS011;22343;50.820;2.666;2023-03-26T03:50:46;12.40;;;3.77;;
36315;SDS011;22343;50.820;2.666;2023-03-26T03:53:31;10.33;;;3.87;;
36315;SDS011;22343;50.820;2.666;2023-03-26T03:56:19;12.20;;;4.07;;
36315;SDS011;22343;50.820;2.666;2023-03-26T03:59:06;12.53;;;4.00;;
36315;SDS011;22343;50.820;2.666;2023-03-26T04:01:51;13.77;;;4.13;;
36315;SDS011;22343;50.820;2.666;2023-03-26T04:04:36;12.33;;;4.03;;
36315;SDS011;22343;50.820;2.666;2023-03-26T04:07:20;10.80;;;3.70;;
36315;SDS011;22343;50.820;2.666;2023-03-26T04:10:05;8.37;;;3.60;;
36315;SDS011;22343;50.820;2.666;2023-03-26T04:12:51;12.10;;;3.90;;
36315;SDS011;22343;50.820;2.666;2023-03-26T04:15:35;10.07;;;4.10;;
36315;SDS011;22343;50.820;2.666;2023-03-26T04:18:19;10.57;;;3.93;;
36315;SDS011;22343;50.820;2.666;2023-03-26T04:21:05;12.90;;;4.40;;
36315;SDS011;22343;50.820;2.666;2023-03-26T04:23:50;12.33;;;4.83;;
36315;SDS011;22343;50.820;2.666;2023-03-26T04:26:34;10.80;;;4.27;;
36315;SDS011;22343;50.820;2.666;2023-03-26T04:29:19;11.77;;;4.70;;
36315;SDS011;22343;50.820;2.666;2023-03-26T04:32:08;10.93;;;4.30;;
36315;SDS011;22343;50.820;2.666;2023-03-26T04:34:57;11.40;;;4.30;;
36315;SDS011;22343;50.820;2.666;2023-03-26T04:37:46;10.50;;;4.27;;
36315;SDS011;22343;50.820;2.666;2023-03-26T04:40:31;13.53;;;4.73;;
36315;SDS011;22343;50.820;2.666;2023-03-26T04:43:17;11.50;;;4.60;;
36315;SDS011;22343;50.820;2.666;2023-03-26T04:46:01;9.60;;;4.30;;
36315;SDS011;22343;50.820;2.666;2023-03-26T04:48:48;10.13;;;3.60;;
36315;SDS011;22343;50.820;2.666;2023-03-26T04:51:36;8.80;;;3.77;;
36315;SDS011;22343;50.820;2.666;2023-03-26T04:54:21;10.33;;;3.23;;
36315;SDS011;22343;50.820;2.666;2023-03-26T04:57:30;8.17;;;3.20;;
36315;SDS011;22343;50.820;2.666;2023-03-26T05:00:13;9.40;;;3.57;;
36315;SDS011;22343;50.820;2.666;2023-03-26T05:02:59;9.63;;;3.67;;
36315;SDS011;22343;50.820;2.666;2023-03-26T05:05:44;7.87;;;3.27;;
36315;SDS011;22343;50.820;2.666;2023-03-26T05:08:29;5.33;;;2.57;;
36315;SDS011;22343;50.820;2.666;2023-03-26T05:11:14;5.37;;;2.57;;
36315;SDS011;22343;50.820;2.666;2023-03-26T05:13:58;3.90;;;1.90;;
36315;SDS011;22343;50.820;2.666;2023-03-26T05:16:43;3.47;;;1.70;;
36315;SDS011;22343;50.820;2.666;2023-03-26T05:19:29;2.43;;;1.80;;
36315;SDS011;22343;50.820;2.666;2023-03-26T05:22:14;4.20;;;2.07;;
36315;SDS011;22343;50.820;2.666;2023-03-26T05:24:59;4.73;;;2.10;;
36315;SDS011;22343;50.820;2.666;2023-03-26T05:27:43;3.90;;;1.87;;
36315;SDS011;22343;50.820;2.666;2023-03-26T05:30:29;8.40;;;5.70;;
36315;SDS011;22343;50.820;2.666;2023-03-26T05:33:13;3.33;;;2.07;;
36315;SDS011;22343;50.820;2.666;2023-03-26T05:38:48;4.63;;;2.23;;
36315;SDS011;22343;50.820;2.666;2023-03-26T05:41:32;7.57;;;2.63;;
36315;SDS011;22343;50.820;2.666;2023-03-26T05:44:18;4.80;;;2.40;;
36315;SDS011;22343;50.820;2.666;2023-03-26T05:47:02;6.23;;;2.50;;
36315;SDS011;22343;50.820;2.666;2023-03-26T05:49:46;4.13;;;2.40;;
36315;SDS011;22343;50.820;2.666;2023-03-26T05:52:31;3.50;;;1.90;;
36315;SDS011;22343;50.820;2.666;2023-03-26T05:55:15;5.30;;;2.10;;
36315;SDS011;22343;50.820;2.666;2023-03-26T05:58:01;3.47;;;2.20;;
36315;SDS011;22343;50.820;2.666;2023-03-26T06:00:45;5.60;;;2.10;;
36315;SDS011;22343;50.820;2.666;2023-03-26T06:03:31;4.43;;;1.93;;
36315;SDS011;22343;50.820;2.666;2023-03-26T06:06:17;4.07;;;2.30;;
36315;SDS011;22343;50.820;2.666;2023-03-26T06:09:03;3.70;;;2.10;;
36315;SDS011;22343;50.820;2.666;2023-03-26T06:11:49;7.23;;;2.30;;
36315;SDS011;22343;50.820;2.666;2023-03-26T06:14:34;5.33;;;2.17;;
36315;SDS011;22343;50.820;2.666;2023-03-26T06:17:19;4.50;;;2.40;;
36315;SDS011;22343;50.820;2.666;2023-03-26T06:20:03;4.93;;;2.20;;
36315;SDS011;22343;50.820;2.666;2023-03-26T06:22:50;2.63;;;1.90;;
36315;SDS011;22343;50.820;2.666;2023-03-26T06:25:35;3.27;;;2.80;;
36315;SDS011;22343;50.820;2.666;2023-03-26T06:28:20;3.80;;;2.40;;
36315;SDS011;22343;50.820;2.666;2023-03-26T06:31:05;5.43;;;2.50;;
36315;SDS011;22343;50.820;2.666;2023-03-26T06:33:49;6.83;;;4.07;;
36315;SDS011;22343;50.820;2.666;2023-03-26T06:36:34;7.27;;;3.50;;
36315;SDS011;22343;50.820;2.666;2023-03-26T06:39:18;4.63;;;2.83;;
36315;SDS011;22343;50.820;2.666;2023-03-26T06:42:03;4.47;;;2.53;;
36315;SDS011;22343;50.820;2.666;2023-03-26T06:44:48;4.83;;;2.50;;
36315;SDS011;22343;50.820;2.666;2023-03-26T06:47:32;4.50;;;2.53;;
36315;SDS011;22343;50.820;2.666;2023-03-26T06:50:17;3.87;;;2.40;;
36315;SDS011;22343;50.820;2.666;2023-03-26T06:53:01;4.27;;;2.30;;
36315;SDS011;22343;50.820;2.666;2023-03-26T06:55:45;4.17;;;1.90;;
36315;SDS011;22343;50.820;2.666;2023-03-26T06:58:30;4.10;;;2.20;;
36315;SDS011;22343;50.820;2.666;2023-03-26T07:01:14;4.77;;;2.30;;
36315;SDS011;22343;50.820;2.666;2023-03-26T07:03:59;3.67;;;2.00;;
36315;SDS011;22343;50.820;2.666;2023-03-26T07:06:43;3.43;;;2.20;;
36315;SDS011;22343;50.820;2.666;2023-03-26T07:09:27;3.23;;;2.23;;
36315;SDS011;22343;50.820;2.666;2023-03-26T07:12:15;2.27;;;1.87;;
36315;SDS011;22343;50.820;2.666;2023-03-26T07:15:00;3.27;;;1.77;;
36315;SDS011;22343;50.820;2.666;2023-03-26T07:17:45;2.67;;;1.80;;
36315;SDS011;22343;50.820;2.666;2023-03-26T07:20:29;3.77;;;2.20;;
36315;SDS011;22343;50.820;2.666;2023-03-26T07:23:13;3.47;;;1.80;;
36315;SDS011;22343;50.820;2.666;2023-03-26T07:26:25;2.50;;;1.80;;
36315;SDS011;22343;50.820;2.666;2023-03-26T07:44:19;3.60;;;2.20;;
36315;SDS011;22343;50.820;2.666;2023-03-26T07:47:46;3.83;;;2.30;;
36315;SDS011;22343;50.820;2.666;2023-03-26T07:50:23;3.80;;;1.87;;
36315;SDS011;22343;50.820;2.666;2023-03-26T07:53:08;1.30;;;1.17;;
36315;SDS011;22343;50.820;2.666;2023-03-26T07:55:56;4.53;;;2.23;;
36315;SDS011;22343;50.820;2.666;2023-03-26T08:02:13;3.33;;;1.93;;
36315;SDS011;22343;50.820;2.666;2023-03-26T08:08:07;3.33;;;2.20;;
36315;SDS011;22343;50.820;2.666;2023-03-26T08:11:20;4.17;;;2.03;;
36315;SDS011;22343;50.820;2.666;2023-03-26T08:14:29;3.93;;;2.50;;
36315;SDS011;22343;50.820;2.666;2023-03-26T08:17:34;3.47;;;2.60;;
36315;SDS011;22343;50.820;2.666;2023-03-26T08:20:31;3.77;;;2.40;;
36315;SDS011;22343;50.820;2.666;2023-03-26T08:26:50;3.53;;;2.07;;
36315;SDS011;22343;50.820;2.666;2023-03-26T08:29:56;3.10;;;2.10;;
36315;SDS011;22343;50.820;2.666;2023-03-26T08:32:59;3.47;;;2.80;;
36315;SDS011;22343;50.820;2.666;2023-03-26T08:35:48;3.80;;;2.93;;
36315;SDS011;22343;50.820;2.666;2023-03-26T08:38:33;3.90;;;2.90;;
36315;SDS011;22343;50.820;2.666;2023-03-26T09:00:06;5.20;;;3.97;;
36315;SDS011;22343;50.820;2.666;2023-03-26T09:03:02;7.23;;;3.50;;
36315;SDS011;22343;50.820;2.666;2023-03-26T09:18:35;4.10;;;2.73;;
36315;SDS011;22343;50.820;2.666;2023-03-26T09:22:07;3.90;;;3.00;;
36315;SDS011;22343;50.820;2.666;2023-03-26T09:31:32;4.70;;;3.70;;
36315;SDS011;22343;50.820;2.666;2023-03-26T09:38:14;4.90;;;3.63;;
36315;SDS011;22343;50.820;2.666;2023-03-26T10:14:59;3.93;;;3.20;;
36315;SDS011;22343;50.820;2.666;2023-03-26T10:26:35;3.17;;;2.60;;
36315;SDS011;22343;50.820;2.666;2023-03-26T10:32:31;4.33;;;2.83;;
36315;SDS011;22343;50.820;2.666;2023-03-26T11:00:27;3.13;;;2.50;;
36315;SDS011;22343;50.820;2.666;2023-03-26T11:03:19;3.73;;;2.73;;
36315;SDS011;22343;50.820;2.666;2023-03-26T11:15:26;4.40;;;2.50;;
36315;SDS011;22343;50.820;2.666;2023-03-26T11:21:10;3.33;;;3.03;;
36315;SDS011;22343;50.820;2.666;2023-03-26T11:33:30;3.97;;;3.10;;
36315;SDS011;22343;50.820;2.666;2023-03-26T11:36:21;4.90;;;4.00;;
36315;SDS011;22343;50.820;2.666;2023-03-26T11:39:13;3.80;;;3.40;;
36315;SDS011;22343;50.820;2.666;2023-03-26T11:42:06;3.27;;;2.97;;
36315;SDS011;22343;50.820;2.666;2023-03-26T11:47:41;3.63;;;2.60;;
36315;SDS011;22343;50.820;2.666;2023-03-26T11:50:30;3.00;;;2.70;;
36315;SDS011;22343;50.820;2.666;2023-03-26T11:53:17;2.33;;;1.97;;
36315;SDS011;22343;50.820;2.666;2023-03-26T11:56:07;2.80;;;2.20;;
36315;SDS011;22343;50.820;2.666;2023-03-26T12:05:11;2.47;;;2.00;;
36315;SDS011;22343;50.820;2.666;2023-03-26T12:07:56;2.17;;;1.90;;
36315;SDS011;22343;50.820;2.666;2023-03-26T12:10:42;2.17;;;1.80;;
36315;SDS011;22343;50.820;2.666;2023-03-26T12:13:40;2.10;;;1.80;;
36315;SDS011;22343;50.820;2.666;2023-03-26T12:16:26;2.13;;;1.57;;
36315;SDS011;22343;50.820;2.666;2023-03-26T12:19:18;1.93;;;1.77;;
36315;SDS011;22343;50.820;2.666;2023-03-26T12:22:03;2.80;;;2.30;;
36315;SDS011;22343;50.820;2.666;2023-03-26T12:24:48;2.40;;;2.10;;
36315;SDS011;22343;50.820;2.666;2023-03-26T12:27:48;3.43;;;2.80;;
36315;SDS011;22343;50.820;2.666;2023-03-26T12:30:50;3.97;;;2.90;;
36315;SDS011;22343;50.820;2.666;2023-03-26T12:33:37;3.37;;;2.63;;
36315;SDS011;22343;50.820;2.666;2023-03-26T12:36:22;3.70;;;2.80;;
36315;SDS011;22343;50.820;2.666;2023-03-26T12:39:21;4.60;;;2.90;;
36315;SDS011;22343;50.820;2.666;2023-03-26T12:42:29;3.10;;;2.20;;
36315;SDS011;22343;50.820;2.666;2023-03-26T12:45:15;2.37;;;2.13;;
36315;SDS011;22343;50.820;2.666;2023-03-26T12:48:00;2.83;;;2.27;;
36315;SDS011;22343;50.820;2.666;2023-03-26T12:59:29;2.33;;;2.07;;
36315;SDS011;22343;50.820;2.666;2023-03-26T13:17:24;5.63;;;3.37;;
36315;SDS011;22343;50.820;2.666;2023-03-26T13:23:31;5.50;;;3.90;;
36315;SDS011;22343;50.820;2.666;2023-03-26T13:35:53;4.70;;;3.40;;
36315;SDS011;22343;50.820;2.666;2023-03-26T13:38:46;4.97;;;3.33;;
36315;SDS011;22343;50.820;2.666;2023-03-26T13:42:11;5.10;;;3.47;;
36315;SDS011;22343;50.820;2.666;2023-03-26T13:48:20;6.13;;;3.53;;
36315;SDS011;22343;50.820;2.666;2023-03-26T13:57:28;4.30;;;3.50;;
36315;SDS011;22343;50.820;2.666;2023-03-26T14:00:26;4.17;;;3.57;;
36315;SDS011;22343;50.820;2.666;2023-03-26T14:12:26;6.13;;;4.50;;
36315;SDS011;22343;50.820;2.666;2023-03-26T14:15:20;6.27;;;4.03;;
36315;SDS011;22343;50.820;2.666;2023-03-26T14:21:36;7.00;;;4.33;;
36315;SDS011;22343;50.820;2.666;2023-03-26T14:39:56;6.30;;;3.60;;
36315;SDS011;22343;50.820;2.666;2023-03-26T14:46:37;3.77;;;2.60;;
36315;SDS011;22343;50.820;2.666;2023-03-26T14:52:52;5.90;;;3.07;;
36315;SDS011;22343;50.820;2.666;2023-03-26T15:23:37;11.80;;;3.67;;
36315;SDS011;22343;50.820;2.666;2023-03-26T15:27:37;14.13;;;4.03;;
36315;SDS011;22343;50.820;2.666;2023-03-26T15:30:31;18.43;;;4.33;;
36315;SDS011;22343;50.820;2.666;2023-03-26T15:45:49;13.43;;;3.90;;
36315;SDS011;22343;50.820;2.666;2023-03-26T15:51:36;16.03;;;3.70;;
36315;SDS011;22343;50.820;2.666;2023-03-26T15:54:29;8.73;;;3.43;;
36315;SDS011;22343;50.820;2.666;2023-03-26T15:57:18;12.67;;;3.83;;
36315;SDS011;22343;50.820;2.666;2023-03-26T16:00:19;5.87;;;2.33;;
36315;SDS011;22343;50.820;2.666;2023-03-26T16:08:42;10.53;;;3.10;;
36315;SDS011;22343;50.820;2.666;2023-03-26T16:14:43;19.23;;;3.50;;
36315;SDS011;22343;50.820;2.666;2023-03-26T16:18:03;6.97;;;2.70;;
36315;SDS011;22343;50.820;2.666;2023-03-26T16:32:44;2.43;;;1.60;;
36315;SDS011;22343;50.820;2.666;2023-03-26T16:35:38;8.93;;;2.50;;
36315;SDS011;22343;50.820;2.666;2023-03-26T16:38:24;7.53;;;2.43;;
36315;SDS011;22343;50.820;2.666;2023-03-26T16:41:23;7.90;;;3.27;;
36315;SDS011;22343;50.820;2.666;2023-03-26T16:47:56;4.80;;;2.13;;
36315;SDS011;22343;50.820;2.666;2023-03-26T16:56:32;6.63;;;2.80;;
36315;SDS011;22343;50.820;2.666;2023-03-26T17:06:04;5.60;;;2.40;;
36315;SDS011;22343;50.820;2.666;2023-03-26T17:12:19;5.63;;;2.43;;
36315;SDS011;22343;50.820;2.666;2023-03-26T17:15:29;8.63;;;3.60;;
36315;SDS011;22343;50.820;2.666;2023-03-26T17:18:22;9.53;;;2.83;;
36315;SDS011;22343;50.820;2.666;2023-03-26T17:21:35;10.27;;;3.10;;
36315;SDS011;22343;50.820;2.666;2023-03-26T17:24:34;6.77;;;2.70;;
36315;SDS011;22343;50.820;2.666;2023-03-26T17:27:51;9.90;;;3.37;;
36315;SDS011;22343;50.820;2.666;2023-03-26T17:30:52;7.10;;;3.53;;
36315;SDS011;22343;50.820;2.666;2023-03-26T17:33:45;5.33;;;1.90;;
36315;SDS011;22343;50.820;2.666;2023-03-26T17:36:40;7.57;;;3.37;;
36315;SDS011;22343;50.820;2.666;2023-03-26T17:42:32;7.30;;;2.93;;
36315;SDS011;22343;50.820;2.666;2023-03-26T17:45:21;6.03;;;2.43;;
36315;SDS011;22343;50.820;2.666;2023-03-26T17:48:13;5.60;;;2.53;;
36315;SDS011;22343;50.820;2.666;2023-03-26T17:51:02;11.27;;;3.40;;
36315;SDS011;22343;50.820;2.666;2023-03-26T17:53:49;6.77;;;2.60;;
36315;SDS011;22343;50.820;2.666;2023-03-26T17:56:36;7.70;;;2.50;;
36315;SDS011;22343;50.820;2.666;2023-03-26T17:59:21;8.10;;;3.17;;
36315;SDS011;22343;50.820;2.666;2023-03-26T18:02:13;4.70;;;2.30;;
36315;SDS011;22343;50.820;2.666;2023-03-26T18:04:59;6.30;;;2.30;;
36315;SDS011;22343;50.820;2.666;2023-03-26T18:08:03;9.43;;;3.50;;
36315;SDS011;22343;50.820;2.666;2023-03-26T18:14:18;10.17;;;3.27;;
36315;SDS011;22343;50.820;2.666;2023-03-26T18:17:07;8.83;;;2.97;;
36315;SDS011;22343;50.820;2.666;2023-03-26T18:19:53;7.23;;;3.40;;
36315;SDS011;22343;50.820;2.666;2023-03-26T18:22:38;7.37;;;2.50;;
36315;SDS011;22343;50.820;2.666;2023-03-26T18:25:29;13.07;;;2.83;;
36315;SDS011;22343;50.820;2.666;2023-03-26T18:28:16;7.97;;;3.07;;
36315;SDS011;22343;50.820;2.666;2023-03-26T18:31:22;4.97;;;2.30;;
36315;SDS011;22343;50.820;2.666;2023-03-26T18:34:14;6.87;;;2.40;;
36315;SDS011;22343;50.820;2.666;2023-03-26T18:37:11;4.33;;;2.50;;
36315;SDS011;22343;50.820;2.666;2023-03-26T18:40:02;9.23;;;2.57;;
36315;SDS011;22343;50.820;2.666;2023-03-26T18:43:02;6.67;;;2.10;;
36315;SDS011;22343;50.820;2.666;2023-03-26T18:45:47;6.53;;;2.80;;
36315;SDS011;22343;50.820;2.666;2023-03-26T18:48:33;6.47;;;2.10;;
36315;SDS011;22343;50.820;2.666;2023-03-26T18:51:19;7.47;;;2.60;;
36315;SDS011;22343;50.820;2.666;2023-03-26T18:54:06;6.30;;;2.40;;
36315;SDS011;22343;50.820;2.666;2023-03-26T18:56:51;7.23;;;2.50;;
36315;SDS011;22343;50.820;2.666;2023-03-26T18:59:36;4.37;;;2.30;;
36315;SDS011;22343;50.820;2.666;2023-03-26T19:02:22;5.07;;;2.10;;
36315;SDS011;22343;50.820;2.666;2023-03-26T19:05:11;8.03;;;2.30;;
36315;SDS011;22343;50.820;2.666;2023-03-26T19:08:03;6.57;;;2.27;;
36315;SDS011;22343;50.820;2.666;2023-03-26T19:10:50;7.87;;;2.50;;
36315;SDS011;22343;50.820;2.666;2023-03-26T19:13:36;4.53;;;1.93;;
36315;SDS011;22343;50.820;2.666;2023-03-26T19:16:25;9.00;;;2.70;;
36315;SDS011;22343;50.820;2.666;2023-03-26T19:19:17;6.37;;;2.50;;
36315;SDS011;22343;50.820;2.666;2023-03-26T19:22:03;6.93;;;2.47;;
36315;SDS011;22343;50.820;2.666;2023-03-26T19:24:49;9.07;;;2.80;;
36315;SDS011;22343;50.820;2.666;2023-03-26T19:27:40;8.67;;;3.07;;
36315;SDS011;22343;50.820;2.666;2023-03-26T19:33:15;7.60;;;2.27;;
36315;SDS011;22343;50.820;2.666;2023-03-26T19:36:03;7.53;;;2.57;;
36315;SDS011;22343;50.820;2.666;2023-03-26T19:41:41;5.13;;;2.30;;
36315;SDS011;22343;50.820;2.666;2023-03-26T19:44:27;7.93;;;2.73;;
36315;SDS011;22343;50.820;2.666;2023-03-26T19:47:14;7.73;;;2.80;;
36315;SDS011;22343;50.820;2.666;2023-03-26T19:56:11;9.87;;;3.27;;
36315;SDS011;22343;50.820;2.666;2023-03-26T19:58:58;8.03;;;3.00;;
36315;SDS011;22343;50.820;2.666;2023-03-26T20:01:43;7.73;;;2.70;;
36315;SDS011;22343;50.820;2.666;2023-03-26T20:04:27;8.70;;;2.83;;
36315;SDS011;22343;50.820;2.666;2023-03-26T20:07:19;6.93;;;2.57;;
36315;SDS011;22343;50.820;2.666;2023-03-26T20:10:10;7.13;;;2.53;;
36315;SDS011;22343;50.820;2.666;2023-03-26T20:12:55;5.27;;;2.20;;
36315;SDS011;22343;50.820;2.666;2023-03-26T20:15:39;5.83;;;2.10;;
36315;SDS011;22343;50.820;2.666;2023-03-26T20:18:24;2.93;;;1.53;;
36315;SDS011;22343;50.820;2.666;2023-03-26T20:21:10;7.63;;;2.80;;
36315;SDS011;22343;50.820;2.666;2023-03-26T20:23:55;7.50;;;2.30;;
36315;SDS011;22343;50.820;2.666;2023-03-26T20:26:40;6.27;;;2.70;;
36315;SDS011;22343;50.820;2.666;2023-03-26T20:29:25;8.67;;;2.47;;
36315;SDS011;22343;50.820;2.666;2023-03-26T20:32:16;6.67;;;2.17;;
36315;SDS011;22343;50.820;2.666;2023-03-26T20:35:12;3.73;;;1.97;;
36315;SDS011;22343;50.820;2.666;2023-03-26T20:37:58;5.07;;;2.10;;
36315;SDS011;22343;50.820;2.666;2023-03-26T20:40:43;4.63;;;2.10;;
36315;SDS011;22343;50.820;2.666;2023-03-26T20:43:28;9.30;;;2.80;;
36315;SDS011;22343;50.820;2.666;2023-03-26T20:46:20;6.03;;;2.33;;
36315;SDS011;22343;50.820;2.666;2023-03-26T20:49:06;8.53;;;1.97;;
36315;SDS011;22343;50.820;2.666;2023-03-26T20:51:50;8.00;;;2.00;;
36315;SDS011;22343;50.820;2.666;2023-03-26T20:54:35;5.17;;;2.30;;
36315;SDS011;22343;50.820;2.666;2023-03-26T20:57:20;8.43;;;2.30;;
36315;SDS011;22343;50.820;2.666;2023-03-26T21:00:05;6.70;;;2.17;;
36315;SDS011;22343;50.820;2.666;2023-03-26T21:03:02;8.90;;;1.73;;
36315;SDS011;22343;50.820;2.666;2023-03-26T21:05:47;7.47;;;2.60;;
36315;SDS011;22343;50.820;2.666;2023-03-26T21:08:34;4.60;;;2.17;;
36315;SDS011;22343;50.820;2.666;2023-03-26T21:14:19;4.90;;;2.10;;
36315;SDS011;22343;50.820;2.666;2023-03-26T21:17:13;5.60;;;1.93;;
36315;SDS011;22343;50.820;2.666;2023-03-26T21:20:00;6.47;;;2.13;;
36315;SDS011;22343;50.820;2.666;2023-03-26T21:26:05;2.20;;;1.60;;
36315;SDS011;22343;50.820;2.666;2023-03-26T21:28:55;5.53;;;2.00;;
36315;SDS011;22343;50.820;2.666;2023-03-26T21:31:40;3.53;;;1.50;;
36315;SDS011;22343;50.820;2.666;2023-03-26T21:34:25;4.97;;;1.47;;
36315;SDS011;22343;50.820;2.666;2023-03-26T21:37:10;2.47;;;1.30;;
36315;SDS011;22343;50.820;2.666;2023-03-26T21:39:55;5.60;;;1.53;;
36315;SDS011;22343;50.820;2.666;2023-03-26T21:42:40;3.37;;;1.50;;
36315;SDS011;22343;50.820;2.666;2023-03-26T21:45:34;3.40;;;1.60;;
36315;SDS011;22343;50.820;2.666;2023-03-26T21:48:19;3.70;;;1.83;;
36315;SDS011;22343;50.820;2.666;2023-03-26T21:51:05;7.00;;;1.50;;
36315;SDS011;22343;50.820;2.666;2023-03-26T21:53:49;3.20;;;1.50;;
36315;SDS011;22343;50.820;2.666;2023-03-26T22:02:46;3.47;;;2.07;;
36315;SDS011;22343;50.820;2.666;2023-03-26T22:08:48;3.20;;;1.90;;
36315;SDS011;22343;50.820;2.666;2023-03-26T22:11:33;6.47;;;2.10;;
36315;SDS011;22343;50.820;2.666;2023-03-26T22:14:17;3.93;;;1.60;;
36315;SDS011;22343;50.820;2.666;2023-03-26T22:17:01;6.97;;;2.63;;
36315;SDS011;22343;50.820;2.666;2023-03-26T22:19:46;9.53;;;2.30;;
36315;SDS011;22343;50.820;2.666;2023-03-26T22:22:30;5.50;;;2.10;;
36315;SDS011;22343;50.820;2.666;2023-03-26T22:25:15;4.33;;;2.17;;
36315;SDS011;22343;50.820;2.666;2023-03-26T22:28:00;7.63;;;2.50;;
36315;SDS011;22343;50.820;2.666;2023-03-26T22:30:45;4.00;;;1.80;;
36315;SDS011;22343;50.820;2.666;2023-03-26T22:33:29;6.93;;;3.17;;
36315;SDS011;22343;50.820;2.666;2023-03-26T22:36:14;3.80;;;2.10;;
36315;SDS011;22343;50.820;2.666;2023-03-26T22:38:58;5.70;;;3.00;;
36315;SDS011;22343;50.820;2.666;2023-03-26T22:41:43;7.23;;;2.37;;
36315;SDS011;22343;50.820;2.666;2023-03-26T22:44:27;4.13;;;1.90;;
36315;SDS011;22343;50.820;2.666;2023-03-26T22:47:12;4.40;;;1.70;;
36315;SDS011;22343;50.820;2.666;2023-03-26T22:49:56;4.20;;;1.80;;
36315;SDS011;22343;50.820;2.666;2023-03-26T22:52:40;5.73;;;2.03;;
36315;SDS011;22343;50.820;2.666;2023-03-26T22:55:25;4.93;;;2.37;;
36315;SDS011;22343;50.820;2.666;2023-03-26T22:58:09;5.20;;;1.90;;
36315;SDS011;22343;50.820;2.666;2023-03-26T23:01:07;4.67;;;2.00;;
36315;SDS011;22343;50.820;2.666;2023-03-26T23:03:55;4.93;;;2.00;;
36315;SDS011;22343;50.820;2.666;2023-03-26T23:06:40;6.20;;;2.20;;
36315;SDS011;22343;50.820;2.666;2023-03-26T23:09:25;5.10;;;1.80;;
36315;SDS011;22343;50.820;2.666;2023-03-26T23:12:09;6.53;;;2.30;;
36315;SDS011;22343;50.820;2.666;2023-03-26T23:14:53;5.27;;;2.20;;
36315;SDS011;22343;50.820;2.666;2023-03-26T23:17:38;4.20;;;2.07;;
36315;SDS011;22343;50.820;2.666;2023-03-26T23:20:23;6.07;;;2.30;;
36315;SDS011;22343;50.820;2.666;2023-03-26T23:23:07;5.57;;;2.13;;